createdAt,value
2022-10-06T00:00:20.391Z,12.3
2022-10-06T00:05:20.353Z,12.3
2022-10-06T00:10:20.345Z,12.2
2022-10-06T00:15:20.382Z,12.2
2022-10-06T00:20:20.356Z,12.1
2022-10-06T00:25:20.361Z,12.1
2022-10-06T00:30:20.575Z,12.1
2022-10-06T00:35:20.364Z,12.0
2022-10-06T00:40:20.371Z,12.0
2022-10-06T00:45:20.390Z,11.9
2022-10-06T00:50:20.369Z,11.9
2022-10-06T00:55:20.377Z,11.9
2022-10-06T01:00:20.442Z,11.9
2022-10-06T01:05:20.384Z,11.9
2022-10-06T01:10:20.389Z,11.9
2022-10-06T01:15:20.406Z,11.8
2022-10-06T01:20:20.387Z,11.8
2022-10-06T01:25:20.401Z,11.7
2022-10-06T01:30:20.464Z,11.7
2022-10-06T01:35:20.398Z,11.6
2022-10-06T01:40:20.403Z,11.6
2022-10-06T01:45:20.424Z,11.6
2022-10-06T01:50:20.405Z,11.5
2022-10-06T01:55:20.409Z,11.5
2022-10-06T02:00:20.422Z,11.4
2022-10-06T02:05:20.417Z,11.4
2022-10-06T02:10:20.422Z,11.3
2022-10-06T02:15:20.447Z,11.2
2022-10-06T02:20:20.424Z,11.2
2022-10-06T02:25:20.432Z,11.1
2022-10-06T02:30:20.444Z,11.1
2022-10-06T02:35:20.433Z,11.0
2022-10-06T02:40:20.449Z,11.0
2022-10-06T02:45:20.486Z,10.9
2022-10-06T02:50:20.447Z,10.8
2022-10-06T02:55:20.446Z,10.8
2022-10-06T03:00:20.515Z,10.7
2022-10-06T03:05:20.457Z,10.7
2022-10-06T03:10:20.459Z,10.7
2022-10-06T03:15:20.482Z,10.6
2022-10-06T03:20:20.464Z,10.5
2022-10-06T03:25:20.466Z,10.5
2022-10-06T03:30:20.475Z,10.4
2022-10-06T03:35:20.471Z,10.4
2022-10-06T03:40:20.470Z,10.3
2022-10-06T03:45:20.500Z,10.3
2022-10-06T03:50:20.478Z,10.3
2022-10-06T03:55:20.478Z,10.2
2022-10-06T04:00:20.558Z,10.2
2022-10-06T04:05:20.501Z,10.1
2022-10-06T04:10:20.487Z,10.1
2022-10-06T04:15:20.575Z,10.1
2022-10-06T04:20:20.492Z,10.1
2022-10-06T04:25:20.497Z,10.1
2022-10-06T04:30:20.569Z,10.0
2022-10-06T04:35:20.500Z,10.0
2022-10-06T04:40:20.504Z,10.0
2022-10-06T04:45:20.537Z,10.0
2022-10-06T04:50:20.517Z,9.9
2022-10-06T04:55:20.521Z,9.9
2022-10-06T05:00:20.586Z,9.9
2022-10-06T05:05:20.520Z,9.9
2022-10-06T05:10:20.523Z,9.9
2022-10-06T05:15:20.554Z,9.8
2022-10-06T05:20:20.528Z,9.8
2022-10-06T05:25:20.534Z,9.7
2022-10-06T05:30:20.549Z,9.7
2022-10-06T05:35:20.541Z,9.7
2022-10-06T05:40:20.544Z,9.7
2022-10-06T05:45:20.560Z,9.6
2022-10-06T05:50:20.784Z,9.6
2022-10-06T05:55:20.549Z,9.6
2022-10-06T06:00:20.570Z,9.6
2022-10-06T06:05:20.561Z,9.6
2022-10-06T06:10:20.555Z,9.6
2022-10-06T06:15:20.580Z,9.6
2022-10-06T06:20:20.567Z,9.6
2022-10-06T06:25:20.566Z,9.7
2022-10-06T06:30:20.583Z,9.7
2022-10-06T06:35:20.571Z,9.7
2022-10-06T06:40:20.572Z,9.7
2022-10-06T06:45:21.054Z,9.7
2022-10-06T06:50:20.580Z,9.8
2022-10-06T06:55:20.590Z,9.9
2022-10-06T07:00:20.832Z,9.9
2022-10-06T07:05:20.593Z,9.9
2022-10-06T07:10:20.594Z,10.1
2022-10-06T07:15:21.071Z,10.2
2022-10-06T07:20:20.603Z,10.3
2022-10-06T07:25:25.340Z,10.4
2022-10-06T07:30:20.852Z,10.5
2022-10-06T07:35:20.604Z,10.5
2022-10-06T07:40:20.610Z,10.7
2022-10-06T07:45:21.102Z,10.7
2022-10-06T07:50:20.621Z,10.8
2022-10-06T07:55:20.622Z,11.0
2022-10-06T08:00:20.920Z,11.1
2022-10-06T08:05:20.625Z,11.2
2022-10-06T08:10:20.628Z,11.3
2022-10-06T08:15:20.635Z,11.4
2022-10-06T08:20:21.693Z,11.6
2022-10-06T08:25:20.657Z,11.7
2022-10-06T08:30:21.010Z,11.9
2022-10-06T08:35:20.650Z,11.9
2022-10-06T08:40:20.742Z,11.9
2022-10-06T08:45:20.649Z,11.9
2022-10-06T08:50:20.724Z,12.0
2022-10-06T08:55:21.136Z,12.1
2022-10-06T09:00:22.159Z,12.3
2022-10-06T09:05:20.659Z,12.4
2022-10-06T09:10:20.665Z,12.4
2022-10-06T09:15:20.663Z,12.5
2022-10-06T09:20:20.731Z,12.6
2022-10-06T09:25:20.672Z,12.8
2022-10-06T09:30:21.394Z,12.8
2022-10-06T09:35:20.675Z,12.9
2022-10-06T09:40:20.680Z,13.0
2022-10-06T09:45:20.689Z,13.1
2022-10-06T09:50:20.687Z,13.1
2022-10-06T09:55:20.689Z,13.2
2022-10-06T10:00:20.936Z,13.3
2022-10-06T10:05:20.964Z,13.4
2022-10-06T10:10:20.704Z,13.5
2022-10-06T10:15:20.708Z,13.6
2022-10-06T10:20:20.704Z,13.7
2022-10-06T10:25:20.708Z,13.8
2022-10-06T10:30:20.953Z,13.9
2022-10-06T10:35:21.215Z,14.1
2022-10-06T10:40:20.724Z,14.0
2022-10-06T10:45:20.726Z,14.3
2022-10-06T10:50:20.724Z,14.4
2022-10-06T10:55:20.727Z,14.1
2022-10-06T11:00:20.979Z,14.2
2022-10-06T11:05:23.093Z,14.3
2022-10-06T11:10:21.217Z,14.4
2022-10-06T11:15:20.732Z,15.0
2022-10-06T11:20:20.742Z,15.3
2022-10-06T11:25:20.744Z,15.7
2022-10-06T11:30:20.982Z,15.8
2022-10-06T11:35:20.743Z,15.8
2022-10-06T11:40:20.747Z,16.1
2022-10-06T11:45:21.242Z,16.3
2022-10-06T11:50:20.755Z,16.7
2022-10-06T11:55:20.762Z,16.4
2022-10-06T12:00:21.013Z,16.2
2022-10-06T12:05:54.882Z,16.8
2022-10-06T12:10:20.769Z,17.1
2022-10-06T12:20:21.261Z,16.9
2022-10-06T12:25:20.783Z,17.0
2022-10-06T12:30:21.118Z,17.2
2022-10-06T12:35:20.791Z,17.4
2022-10-06T12:40:20.851Z,17.7
2022-10-06T12:45:20.792Z,18.0
2022-10-06T12:50:20.799Z,18.2
2022-10-06T12:55:21.276Z,17.9
2022-10-06T13:00:20.877Z,18.1
2022-10-06T13:05:21.137Z,17.7
2022-10-06T13:10:20.806Z,17.3
2022-10-06T13:15:21.023Z,17.5
2022-10-06T13:20:20.815Z,17.5
2022-10-06T13:25:20.821Z,17.2
2022-10-06T13:30:21.138Z,17.0
2022-10-06T13:35:20.820Z,16.9
2022-10-06T13:40:21.694Z,17.1
2022-10-06T13:45:20.830Z,17.1
2022-10-06T13:50:20.830Z,17.1
2022-10-06T13:55:20.836Z,16.9
2022-10-06T14:00:20.837Z,17.3
2022-10-06T14:05:21.090Z,16.8
2022-10-06T14:10:21.206Z,16.5
2022-10-06T14:15:20.849Z,16.8
2022-10-06T14:20:20.850Z,16.8
2022-10-06T14:25:20.858Z,16.6
2022-10-06T14:30:20.867Z,16.5
2022-10-06T14:35:21.347Z,16.5
2022-10-06T14:40:20.861Z,16.4
2022-10-06T14:45:21.104Z,16.3
2022-10-06T14:50:20.875Z,16.1
2022-10-06T14:55:20.873Z,16.0
2022-10-06T15:00:20.874Z,15.8
2022-10-06T15:05:20.881Z,15.7
2022-10-06T15:10:21.123Z,15.6
2022-10-06T15:15:20.889Z,15.6
2022-10-06T15:20:21.131Z,15.4
2022-10-06T15:25:20.885Z,15.4
2022-10-06T15:30:20.901Z,15.3
2022-10-06T15:35:20.898Z,15.3
2022-10-06T15:40:20.899Z,15.1
2022-10-06T15:45:21.393Z,15.0
2022-10-06T15:50:20.913Z,14.9
2022-10-06T15:55:21.158Z,14.9
2022-10-06T16:00:20.920Z,14.7
2022-10-06T16:05:20.918Z,14.6
2022-10-06T16:10:20.919Z,14.4
2022-10-06T16:15:20.925Z,14.4
2022-10-06T16:20:21.175Z,14.3
2022-10-06T16:25:20.922Z,14.2
2022-10-06T16:30:21.182Z,14.1
2022-10-06T16:35:20.931Z,13.9
2022-10-06T16:40:20.941Z,13.8
2022-10-06T16:45:20.939Z,13.7
2022-10-06T16:50:20.943Z,13.6
2022-10-06T16:53:17.007Z,13.6
2022-10-06T16:55:20.939Z,13.5
2022-10-06T17:00:20.944Z,13.4
2022-10-06T17:05:21.728Z,13.2
2022-10-06T17:10:21.507Z,13.1
2022-10-06T17:15:20.960Z,13.0
2022-10-06T17:20:20.963Z,12.9
2022-10-06T17:25:21.984Z,12.8
2022-10-06T17:30:20.971Z,12.7
2022-10-06T17:35:20.973Z,12.6
2022-10-06T17:40:21.214Z,12.5
2022-10-06T17:45:21.407Z,12.4
2022-10-06T17:50:20.978Z,12.3
2022-10-06T17:55:20.984Z,12.2
2022-10-06T18:00:21.467Z,12.1
2022-10-06T18:05:20.987Z,11.9
2022-10-06T18:10:20.985Z,11.7
2022-10-06T18:15:21.242Z,11.5
2022-10-06T18:20:20.995Z,11.4
2022-10-06T18:25:25.907Z,11.3
2022-10-06T18:30:22.245Z,11.1
2022-10-06T18:40:21.025Z,10.9
2022-10-06T18:45:21.015Z,10.8
2022-10-06T18:50:21.283Z,10.8
2022-10-06T18:55:21.017Z,10.6
2022-10-06T19:00:21.028Z,10.6
2022-10-06T19:05:21.026Z,10.5
2022-10-06T19:10:21.519Z,10.4
2022-10-06T19:15:21.551Z,10.2
2022-10-06T19:20:21.030Z,10.1
2022-10-06T19:25:21.296Z,10.0
2022-10-06T19:30:21.044Z,9.9
2022-10-06T19:35:21.039Z,9.9
2022-10-06T19:40:21.038Z,9.8
2022-10-06T19:45:21.524Z,9.8
2022-10-06T19:50:21.051Z,9.8
2022-10-06T19:55:21.050Z,9.9
2022-10-06T20:00:21.334Z,10.0
2022-10-06T20:05:21.058Z,10.0
2022-10-06T20:10:21.063Z,10.0
2022-10-06T20:15:21.064Z,10.0
2022-10-06T20:20:21.598Z,10.0
2022-10-06T20:25:21.072Z,9.9
2022-10-06T20:30:21.073Z,9.9
2022-10-06T20:33:34.564Z,9.9
2022-10-06T20:37:36.640Z,9.7
2022-10-06T20:42:36.631Z,9.7
2022-10-06T20:47:36.634Z,9.7
2022-10-06T20:52:37.149Z,9.7
2022-10-06T20:57:36.640Z,9.7
2022-10-06T21:02:36.712Z,9.6
2022-10-06T21:07:37.459Z,9.6
2022-10-06T21:12:36.673Z,9.5
2022-10-06T21:17:36.677Z,9.5
2022-10-06T21:22:36.683Z,9.5
2022-10-06T21:27:37.724Z,9.4
2022-10-06T21:32:36.686Z,9.3
2022-10-06T21:37:36.691Z,9.3
2022-10-06T21:42:36.939Z,9.2
2022-10-06T21:47:36.702Z,9.1
2022-10-06T21:52:36.703Z,9.1
2022-10-06T21:57:36.702Z,9.0
2022-10-06T22:02:37.736Z,8.9
2022-10-06T22:07:36.715Z,8.7
2022-10-06T22:12:37.472Z,8.6
2022-10-06T22:17:36.721Z,8.6
2022-10-06T22:22:36.715Z,8.5
2022-10-06T22:27:36.718Z,8.4
2022-10-06T22:32:36.722Z,8.4
2022-10-06T22:37:36.975Z,8.3
2022-10-06T22:42:36.727Z,8.3
2022-10-06T22:47:37.454Z,8.2
2022-10-06T22:52:36.729Z,8.1
2022-10-06T22:57:36.732Z,8.1
2022-10-06T23:02:36.738Z,8.1
2022-10-06T23:07:37.220Z,8.1
2022-10-06T23:12:36.783Z,8.0
2022-10-06T23:17:36.742Z,8.1
2022-10-06T23:22:37.492Z,8.2
2022-10-06T23:27:36.753Z,8.5
2022-10-06T23:32:36.775Z,8.6
2022-10-06T23:37:36.757Z,8.5
2022-10-06T23:42:37.752Z,8.4
2022-10-06T23:47:36.761Z,8.4
2022-10-06T23:52:36.763Z,8.4
2022-10-06T23:57:37.006Z,8.3
